Pickering, Canada
Current Conditions -  °F | °C
As of 12:00 PM on Wednesday 22 Oct 2014 (Local Time) from CYKZ Reporting Station
Few Clouds Few Clouds  
Wind Chill: 50°   Ceiling: Unl
Heat Index: 50°   Visibility: 15mi
Dew Point: 39°   Wind: 10mph
Humidity: 66%   Direction: 40°NE
Pressure: 30.27"   Gusts: NA
Location:  43.84°N, 79.08°W
Report Text: CYKZ 221600Z 04009KT 15SM FEW040 FEW066 FEW210 10/04 A3027 RMK SC1AC1CC1 CC TR SLP256
Loading
Personal Weather Stations






























Interactive Weather Map
Tropical Storm Tracking
New forecast layout! Learn more

10-Day Weather Forecast

Advertisements
Track Severe Weather on mobile